Time;durP1;ratioP1;P1;durP2;ratioP2;P2;SDS_P1;SDS_P2;PMS_P1;PMS_P2;Temp;Humidity;BMP_temperature;BMP_pressure;BME280_temperature;BME280_humidity;BME280_pressure;Samples;Min_cycle;Max_cycle;Signal;HPM_P1;HPM_P2
2022/09/06 00:01:24;;;;;;;1.48;0.75;;;18.30;60.40;;;;;;4145341;28;20041;-42
2022/09/06 00:03:47;;;;;;;2.22;0.70;;;18.30;60.60;;;;;;4140203;28;20540;-44
2022/09/06 00:06:14;;;;;;;0.98;0.68;;;18.20;60.50;;;;;;4143218;28;20041;-43
2022/09/06 00:08:38;;;;;;;1.75;0.98;;;18.20;60.60;;;;;;4152390;28;20044;-41
2022/09/06 00:11:00;;;;;;;1.92;0.80;;;18.20;60.70;;;;;;4146637;28;20041;-41
2022/09/06 00:13:23;;;;;;;0.88;0.70;;;18.20;60.80;;;;;;4150583;28;20371;-42
2022/09/06 00:15:46;;;;;;;1.70;0.95;;;18.20;60.80;;;;;;4147815;28;20037;-40
2022/09/06 00:18:08;;;;;;;2.35;1.10;;;18.20;60.70;;;;;;4141866;28;20256;-41
2022/09/06 00:20:33;;;;;;;1.77;0.80;;;18.10;60.70;;;;;;4127000;28;20078;-42
2022/09/06 00:23:04;;;;;;;1.45;0.73;;;18.10;60.70;;;;;;4142529;28;20144;-43
2022/09/06 00:25:28;;;;;;;1.42;0.85;;;18.10;60.80;;;;;;4136597;28;20029;-41
2022/09/06 00:27:57;;;;;;;1.45;0.98;;;18.10;60.80;;;;;;4132311;28;20107;-44
2022/09/06 00:30:20;;;;;;;1.25;0.90;;;18.10;61.10;;;;;;4132236;28;20038;-43
2022/09/06 00:32:42;;;;;;;1.13;0.70;;;18.10;61.30;;;;;;4143733;28;20086;-42
2022/09/06 00:35:05;;;;;;;1.88;1.08;;;18.20;61.30;;;;;;4145230;28;20399;-44
2022/09/06 00:37:28;;;;;;;4.13;1.02;;;18.20;61.50;;;;;;4142047;28;20073;-42
2022/09/06 00:39:50;;;;;;;2.05;1.00;;;18.20;61.30;;;;;;4132232;28;20038;-43
2022/09/06 00:42:13;;;;;;;2.03;0.88;;;18.20;60.70;;;;;;4145018;28;20144;-43
2022/09/06 00:44:36;;;;;;;3.13;1.10;;;18.20;60.50;;;;;;4148425;28;20041;-51
2022/09/06 00:46:59;;;;;;;3.35;1.42;;;18.10;61.20;;;;;;4151981;28;20041;-42
2022/09/06 00:49:27;;;;;;;3.15;1.60;;;18.10;62.10;;;;;;4146022;28;20553;-46
2022/09/06 00:52:01;;;;;;;1.40;1.08;;;18.20;63.50;;;;;;4142356;28;20033;-44
2022/09/06 00:54:24;;;;;;;3.30;1.10;;;18.20;63.50;;;;;;4155808;28;20716;-44
2022/09/06 00:56:47;;;;;;;3.35;1.00;;;18.30;63.60;;;;;;4156597;28;20041;-45
2022/09/06 00:59:10;;;;;;;1.77;0.75;;;18.30;63.60;;;;;;4168744;28;20048;-44
2022/09/06 01:01:32;;;;;;;2.22;0.82;;;18.40;63.60;;;;;;4153415;28;20084;-43
2022/09/06 01:03:55;;;;;;;2.50;0.90;;;18.40;63.90;;;;;;4150091;28;20136;-43
2022/09/06 01:06:18;;;;;;;4.03;1.00;;;18.40;63.90;;;;;;4159609;28;20046;-44
2022/09/06 01:08:59;;;;;;;1.90;0.93;;;18.50;64.00;;;;;;4140685;28;20358;-44
2022/09/06 01:11:33;;;;;;;2.22;0.75;;;18.60;64.00;;;;;;4155554;28;20113;-48
2022/09/06 01:14:27;;;;;;;1.27;1.00;;;18.60;64.00;;;;;;4146390;28;20040;-45
2022/09/06 01:17:18;;;;;;;1.45;0.73;;;18.60;63.80;;;;;;4146043;28;21486;-43
2022/09/06 01:20:29;;;;;;;2.38;0.75;;;18.60;63.70;;;;;;4143115;28;20045;-43
2022/09/06 01:23:06;;;;;;;1.05;0.68;;;18.70;63.80;;;;;;4078820;28;20055;-43
2022/09/06 01:26:18;;;;;;;1.30;0.70;;;18.70;63.70;;;;;;4136992;28;20045;-42
2022/09/06 01:28:41;;;;;;;1.35;0.70;;;18.80;63.60;;;;;;4120725;28;20064;-42
2022/09/06 01:31:09;;;;;;;2.45;1.13;;;18.80;62.20;;;;;;4146419;28;20098;-41
2022/09/06 01:33:43;;;;;;;1.95;0.80;;;18.80;61.60;;;;;;4150718;28;20057;-45
2022/09/06 01:36:12;;;;;;;2.28;1.08;;;18.70;61.20;;;;;;4146239;28;20522;-44
2022/09/06 01:38:36;;;;;;;4.00;1.02;;;18.70;61.10;;;;;;4145807;28;20041;-42
2022/09/06 01:40:58;;;;;;;3.58;1.00;;;18.60;61.00;;;;;;4137465;28;20113;-42
2022/09/06 01:43:30;;;;;;;5.47;1.40;;;18.70;61.10;;;;;;4153626;28;20052;-43
2022/09/06 01:46:28;;;;;;;3.50;0.80;;;18.60;61.00;;;;;;4152339;28;20483;-43
2022/09/06 01:49:00;;;;;;;2.17;0.88;;;18.60;60.90;;;;;;4148657;28;20909;-42
2022/09/06 01:52:01;;;;;;;2.50;1.00;;;18.60;61.00;;;;;;4147839;28;20033;-45
2022/09/06 01:54:44;;;;;;;2.25;0.90;;;18.60;60.90;;;;;;4080678;29;20047;-41
2022/09/06 01:57:25;;;;;;;1.83;1.02;;;18.60;60.90;;;;;;4082328;29;20501;-43
2022/09/06 02:00:05;;;;;;;1.48;0.77;;;18.60;61.00;;;;;;4137053;28;20038;-44
2022/09/06 02:02:30;;;;;;;2.33;0.73;;;18.60;61.10;;;;;;4153286;28;20081;-45
2022/09/06 02:05:13;;;;;;;3.92;1.10;;;18.60;61.20;;;;;;4150970;28;20038;-41
2022/09/06 02:07:37;;;;;;;3.53;1.00;;;18.60;61.30;;;;;;4159007;28;20052;-43
2022/09/06 02:10:40;;;;;;;1.17;0.60;;;18.60;61.30;;;;;;4147638;28;20559;-43
2022/09/06 02:13:06;;;;;;;1.45;0.90;;;18.60;61.30;;;;;;4150428;28;20033;-43
2022/09/06 02:15:36;;;;;;;1.58;0.70;;;18.60;61.10;;;;;;4145137;28;20400;-41
2022/09/06 02:18:40;;;;;;;7.57;0.82;;;18.60;61.20;;;;;;4145763;28;20033;-42
2022/09/06 02:21:03;;;;;;;1.13;0.65;;;18.60;61.40;;;;;;4065570;29;20040;-44
2022/09/06 02:23:30;;;;;;;2.08;1.08;;;18.60;61.10;;;;;;4138556;28;20042;-41
2022/09/06 02:26:02;;;;;;;1.17;0.70;;;18.60;60.90;;;;;;4147210;28;20047;-41
2022/09/06 02:28:25;;;;;;;1.30;0.60;;;18.60;60.80;;;;;;4149674;28;20037;-41
2022/09/06 02:30:57;;;;;;;2.57;0.97;;;18.60;60.80;;;;;;4145716;28;20037;-42
2022/09/06 02:33:23;;;;;;;1.85;0.68;;;18.60;60.80;;;;;;4142806;28;20092;-41
2022/09/06 02:35:49;;;;;;;1.00;0.57;;;18.60;60.80;;;;;;4155664;28;20041;-42
2022/09/06 02:38:12;;;;;;;2.58;1.00;;;18.60;60.90;;;;;;4143726;28;20042;-41
2022/09/06 02:40:35;;;;;;;1.05;0.68;;;18.60;61.00;;;;;;4153741;28;20090;-42
2022/09/06 02:42:57;;;;;;;1.17;0.77;;;18.60;61.00;;;;;;4131874;28;20057;-42
2022/09/06 02:45:20;;;;;;;2.30;1.30;;;18.60;61.00;;;;;;4143310;28;20037;-44
2022/09/06 02:47:42;;;;;;;3.22;1.63;;;18.60;61.70;;;;;;4142206;28;20045;-41
2022/09/06 02:50:07;;;;;;;2.63;1.33;;;18.70;62.40;;;;;;4142049;28;20328;-43
2022/09/06 02:52:29;;;;;;;;;;;18.70;62.70;;;;;;4151934;28;20049;-45
2022/09/06 02:54:51;;;;;;;2.10;1.15;;;18.80;62.80;;;;;;4146887;28;19916;-45
2022/09/06 02:57:14;;;;;;;1.20;1.10;;;18.80;62.80;;;;;;4147908;28;20564;-43
2022/09/06 02:59:36;;;;;;;1.65;1.10;;;18.80;62.90;;;;;;4152281;28;20401;-43
2022/09/06 03:01:59;;;;;;;1.58;1.13;;;18.90;63.10;;;;;;4148619;28;20047;-44
2022/09/06 03:04:21;;;;;;;2.95;1.63;;;18.90;62.70;;;;;;4150414;28;20045;-42
2022/09/06 03:06:44;;;;;;;5.20;1.92;;;18.90;62.20;;;;;;4146404;28;20033;-43
2022/09/06 03:09:07;;;;;;;3.55;1.75;;;18.90;62.20;;;;;;4150802;28;20104;-44
2022/09/06 03:11:31;;;;;;;2.38;1.50;;;18.90;62.50;;;;;;4146448;28;20045;-44
2022/09/06 03:13:54;;;;;;;2.83;1.60;;;19.00;62.60;;;;;;4146071;28;20100;-44
2022/09/06 03:16:16;;;;;;;3.33;1.70;;;19.00;62.60;;;;;;4144726;28;20037;-43
2022/09/06 03:18:39;;;;;;;2.17;1.30;;;19.10;62.70;;;;;;4156076;28;20040;-42
2022/09/06 03:21:02;;;;;;;2.25;1.30;;;19.10;63.00;;;;;;4150143;28;20048;-43
2022/09/06 03:23:28;;;;;;;2.03;1.40;;;19.10;62.90;;;;;;4144416;28;20044;-42
2022/09/06 03:25:50;;;;;;;3.63;1.52;;;19.20;62.90;;;;;;4148286;28;20517;-46
2022/09/06 03:28:13;;;;;;;3.33;1.30;;;19.20;63.20;;;;;;4134362;28;20045;-43
2022/09/06 03:30:36;;;;;;;1.83;1.30;;;19.30;63.70;;;;;;4150529;28;20084;-44
2022/09/06 03:32:58;;;;;;;1.30;0.95;;;19.30;63.90;;;;;;4151219;28;20060;-43
2022/09/06 03:35:21;;;;;;;0.95;0.70;;;19.40;63.90;;;;;;4147241;28;20038;-45
2022/09/06 03:37:44;;;;;;;2.20;1.05;;;19.50;63.90;;;;;;4146236;28;20499;-44
2022/09/06 03:40:07;;;;;;;3.10;0.93;;;19.50;64.40;;;;;;4144376;28;20112;-43
2022/09/06 03:42:29;;;;;;;2.60;1.20;;;19.60;63.70;;;;;;4151950;28;20545;-43
2022/09/06 03:44:53;;;;;;;2.30;0.90;;;19.70;63.60;;;;;;4149727;28;20612;-44
2022/09/06 03:47:15;;;;;;;2.83;1.10;;;19.70;63.70;;;;;;4153295;28;20045;-44
2022/09/06 03:49:38;;;;;;;1.85;0.80;;;19.80;63.70;;;;;;4154620;28;20037;-44
2022/09/06 03:52:01;;;;;;;2.75;1.05;;;19.80;63.60;;;;;;4153792;28;20066;-48
2022/09/06 03:54:23;;;;;;;1.77;0.88;;;19.80;63.60;;;;;;4152451;28;20462;-44
2022/09/06 03:56:46;;;;;;;1.35;0.80;;;19.80;63.70;;;;;;4155537;28;20124;-43
2022/09/06 03:59:08;;;;;;;1.38;0.60;;;19.90;63.50;;;;;;4151866;28;20081;-44
2022/09/06 04:01:31;;;;;;;0.98;0.70;;;20.00;63.50;;;;;;4150459;28;20499;-46
2022/09/06 04:03:53;;;;;;;2.47;0.73;;;20.10;63.40;;;;;;4148256;28;20084;-46
2022/09/06 04:06:16;;;;;;;1.52;0.70;;;20.10;63.30;;;;;;4153957;28;20104;-43
2022/09/06 04:08:39;;;;;;;1.30;0.65;;;20.20;63.20;;;;;;4149385;28;20167;-45
2022/09/06 04:11:02;;;;;;;1.85;0.65;;;20.20;63.10;;;;;;4158911;28;20116;-41
2022/09/06 04:13:25;;;;;;;2.00;0.60;;;20.30;62.50;;;;;;4166916;28;20095;-46
2022/09/06 04:15:48;;;;;;;0.60;0.60;;;20.40;62.00;;;;;;4154510;28;20041;-49
2022/09/06 04:18:11;;;;;;;0.70;0.70;;;20.40;62.00;;;;;;4160283;28;20046;-51
2022/09/06 04:20:33;;;;;;;2.10;1.00;;;20.40;62.00;;;;;;4157464;28;20037;-45
2022/09/06 04:22:56;;;;;;;1.73;1.10;;;20.50;62.00;;;;;;4138811;28;20165;-47
2022/09/06 04:25:18;;;;;;;2.88;1.60;;;20.50;61.90;;;;;;4150014;28;20053;-47
2022/09/06 04:27:41;;;;;;;3.05;1.90;;;20.60;61.80;;;;;;4150079;28;20574;-50
2022/09/06 04:30:04;;;;;;;3.17;2.45;;;20.70;61.70;;;;;;4149135;28;20100;-47
2022/09/06 04:32:26;;;;;;;3.88;3.40;;;20.80;61.60;;;;;;4146573;28;20037;-48
2022/09/06 04:34:49;;;;;;;5.25;3.97;;;20.80;61.50;;;;;;4147660;28;21190;-48
2022/09/06 04:37:13;;;;;;;5.25;4.75;;;20.90;61.40;;;;;;4152385;28;20035;-44
2022/09/06 04:39:36;;;;;;;5.65;5.15;;;20.90;61.40;;;;;;4155757;28;20037;-49
2022/09/06 04:41:58;;;;;;;7.55;6.05;;;21.00;61.30;;;;;;4147111;28;20090;-48
2022/09/06 04:44:21;;;;;;;6.50;6.00;;;21.00;61.20;;;;;;4158365;28;20037;-46
2022/09/06 04:46:43;;;;;;;7.10;6.35;;;21.00;61.30;;;;;;4156443;28;20069;-45
2022/09/06 04:49:06;;;;;;;7.40;6.82;;;21.00;61.30;;;;;;4157753;28;20110;-45
2022/09/06 04:51:30;;;;;;;8.50;7.90;;;21.00;61.30;;;;;;4149380;28;20422;-43
2022/09/06 04:53:52;;;;;;;;;;;21.00;61.30;;;;;;4152792;28;20033;-43
2022/09/06 04:56:21;;;;;;;11.00;10.10;;;21.00;61.20;;;;;;4155228;28;20468;-49
2022/09/06 04:58:45;;;;;;;10.15;9.25;;;21.00;61.00;;;;;;4152173;28;20435;-46
2022/09/06 05:01:08;;;;;;;10.85;9.95;;;21.10;61.30;;;;;;4156060;28;21113;-44
2022/09/06 05:03:30;;;;;;;9.93;9.13;;;21.10;61.20;;;;;;4151467;28;20048;-47
2022/09/06 05:06:02;;;;;;;12.52;11.50;;;21.10;61.20;;;;;;4159405;28;20689;-49
2022/09/06 05:08:25;;;;;;;14.52;13.38;;;21.20;61.20;;;;;;4150732;28;20433;-45
2022/09/06 05:10:51;;;;;;;19.35;17.63;;;21.20;61.20;;;;;;4139320;28;20125;-45
2022/09/06 05:13:13;;;;;;;23.52;21.52;;;21.30;61.30;;;;;;4145386;28;20480;-44
2022/09/06 05:15:36;;;;;;;23.38;21.38;;;21.40;61.10;;;;;;4152588;28;20043;-46
2022/09/06 05:18:03;;;;;;;27.63;24.88;;;21.40;61.00;;;;;;4165293;28;20025;-43
2022/09/06 05:20:26;;;;;;;33.47;30.45;;;21.40;61.00;;;;;;4156035;28;20061;-44
2022/09/06 05:22:54;;;;;;;36.45;33.17;;;21.50;61.10;;;;;;4150559;28;20144;-44
2022/09/06 05:25:17;;;;;;;44.80;40.70;;;21.40;61.00;;;;;;4152398;28;20066;-45
2022/09/06 05:27:39;;;;;;;49.67;45.00;;;21.50;61.00;;;;;;4156002;28;20049;-47
2022/09/06 05:30:03;;;;;;;48.00;43.70;;;21.50;61.20;;;;;;4141227;28;20045;-47
2022/09/06 05:32:25;;;;;;;50.35;45.65;;;21.50;61.40;;;;;;4154859;28;20533;-44
2022/09/06 05:34:48;;;;;;;51.42;46.75;;;21.50;61.50;;;;;;4154426;28;20254;-47
2022/09/06 05:37:10;;;;;;;51.38;46.58;;;21.50;61.60;;;;;;4148429;28;20025;-45
2022/09/06 05:39:33;;;;;;;49.70;45.15;;;21.60;61.60;;;;;;4154902;28;20512;-43
2022/09/06 05:41:55;;;;;;;50.58;46.03;;;21.60;61.70;;;;;;4152904;28;20454;-44
2022/09/06 05:44:18;;;;;;;49.28;44.38;;;21.70;61.60;;;;;;4148253;28;20074;-46
2022/09/06 05:46:45;;;;;;;48.20;43.97;;;21.80;61.00;;;;;;4144006;28;20049;-45
2022/09/06 05:49:08;;;;;;;46.35;42.15;;;21.80;60.80;;;;;;4136933;28;20100;-45
2022/09/06 05:51:31;;;;;;;44.53;40.50;;;21.80;60.90;;;;;;4145768;28;20518;-45
2022/09/06 05:53:54;;;;;;;45.13;41.13;;;21.70;61.10;;;;;;4151442;28;20443;-45
2022/09/06 05:56:18;;;;;;;44.05;40.05;;;21.60;61.30;;;;;;4157452;28;21000;-47
2022/09/06 05:58:40;;;;;;;;;;;21.60;61.10;;;;;;4164871;28;20068;-45
2022/09/06 06:01:08;;;;;;;61.60;55.83;;;21.60;60.30;;;;;;4141222;28;19917;-43
2022/09/06 06:03:30;;;;;;;59.42;53.97;;;21.50;59.40;;;;;;4150775;28;21123;-42
2022/09/06 06:05:53;;;;;;;56.13;51.08;;;21.40;59.80;;;;;;4157076;28;20046;-44
2022/09/06 06:08:15;;;;;;;57.08;51.85;;;21.40;60.10;;;;;;4146169;28;20041;-46
2022/09/06 06:10:38;;;;;;;53.80;48.80;;;21.40;60.30;;;;;;4146333;28;20113;-45
2022/09/06 06:13:00;;;;;;;48.88;44.47;;;21.40;60.50;;;;;;4155544;28;20114;-42
2022/09/06 06:15:23;;;;;;;49.30;44.78;;;21.30;60.60;;;;;;4150105;28;20045;-43
2022/09/06 06:17:45;;;;;;;45.70;41.58;;;21.30;60.80;;;;;;4145562;28;20453;-43
2022/09/06 06:20:08;;;;;;;44.92;40.47;;;21.30;61.00;;;;;;4150642;28;20083;-44
2022/09/06 06:22:31;;;;;;;44.67;40.53;;;21.30;61.20;;;;;;4151086;28;20069;-47
2022/09/06 06:24:53;;;;;;;42.53;38.65;;;21.30;61.20;;;;;;4148819;28;20041;-44
2022/09/06 06:27:16;;;;;;;36.97;33.60;;;21.30;61.30;;;;;;4133292;28;20043;-42
2022/09/06 06:29:38;;;;;;;34.50;31.25;;;21.20;61.30;;;;;;4150043;28;20042;-42
2022/09/06 06:32:01;;;;;;;31.90;29.02;;;21.30;61.50;;;;;;4152712;28;20145;-44
2022/09/06 06:34:24;;;;;;;33.63;30.35;;;21.30;61.50;;;;;;4156856;28;20041;-44
2022/09/06 06:36:46;;;;;;;30.25;27.55;;;21.30;61.40;;;;;;4151343;28;20037;-43
2022/09/06 06:39:09;;;;;;;30.65;27.63;;;21.30;61.50;;;;;;4147856;28;20038;-47
2022/09/06 06:41:32;;;;;;;29.63;26.83;;;21.20;61.60;;;;;;4150031;28;20037;-43
2022/09/06 06:43:57;;;;;;;28.45;25.65;;;21.20;61.70;;;;;;4151488;28;20514;-43
2022/09/06 06:46:21;;;;;;;25.77;23.55;;;21.20;61.70;;;;;;4154354;28;20045;-46
2022/09/06 06:48:45;;;;;;;25.13;22.73;;;21.20;61.70;;;;;;4146411;28;20033;-46
2022/09/06 06:51:09;;;;;;;24.40;22.15;;;21.20;61.70;;;;;;4150952;28;20132;-43
2022/09/06 06:53:31;;;;;;;;;;;21.20;61.70;;;;;;4151578;28;20070;-43
2022/09/06 06:55:54;;;;;;;20.85;18.85;;;21.20;61.70;;;;;;4160485;28;20688;-43
2022/09/06 06:58:17;;;;;;;18.95;17.15;;;21.20;61.80;;;;;;4153910;28;20042;-43
2022/09/06 07:00:40;;;;;;;19.00;17.20;;;21.20;61.70;;;;;;4149367;28;20034;-47
2022/09/06 07:03:03;;;;;;;17.17;15.55;;;21.20;61.70;;;;;;4145289;28;20045;-43
2022/09/06 07:05:26;;;;;;;16.05;14.48;;;21.20;61.70;;;;;;4149102;28;20511;-42
2022/09/06 07:07:48;;;;;;;15.45;13.50;;;21.20;62.40;;;;;;4136974;28;20337;-43
2022/09/06 07:10:11;;;;;;;14.40;12.98;;;21.20;61.70;;;;;;4143496;28;20107;-45
2022/09/06 07:12:33;;;;;;;11.98;10.70;;;21.20;61.50;;;;;;4126435;28;20105;-45
2022/09/06 07:14:56;;;;;;;12.32;10.60;;;21.20;61.40;;;;;;4132203;28;20041;-43
2022/09/06 07:17:18;;;;;;;12.85;10.65;;;21.20;61.50;;;;;;4149501;28;20048;-44
2022/09/06 07:19:41;;;;;;;11.30;10.23;;;21.10;61.30;;;;;;4146016;28;20203;-43
2022/09/06 07:22:03;;;;;;;10.90;9.90;;;21.10;61.30;;;;;;4154533;28;20052;-43
2022/09/06 07:24:26;;;;;;;10.80;9.70;;;21.00;61.20;;;;;;4149290;28;20455;-43
2022/09/06 07:26:48;;;;;;;9.55;8.65;;;21.00;61.20;;;;;;4142735;28;20136;-46
2022/09/06 07:29:11;;;;;;;9.70;8.50;;;21.00;61.10;;;;;;4145376;28;20527;-43
2022/09/06 07:31:34;;;;;;;9.18;8.27;;;21.00;61.10;;;;;;4144007;28;20195;-43
2022/09/06 07:33:56;;;;;;;7.82;7.03;;;20.90;61.00;;;;;;4148155;28;20037;-44
2022/09/06 07:36:19;;;;;;;7.55;6.85;;;20.90;61.00;;;;;;4149103;28;20045;-48
2022/09/06 07:38:42;;;;;;;8.40;6.78;;;20.90;61.00;;;;;;4144403;28;20128;-42
2022/09/06 07:41:07;;;;;;;6.68;6.03;;;20.80;60.90;;;;;;4143913;28;20385;-46
2022/09/06 07:43:31;;;;;;;6.50;5.90;;;20.80;60.90;;;;;;4145927;28;20041;-43
2022/09/06 07:46:08;;;;;;;5.88;5.25;;;20.80;60.80;;;;;;4142985;28;20041;-44
2022/09/06 07:48:32;;;;;;;5.85;4.93;;;20.80;60.90;;;;;;4140150;28;20292;-45
2022/09/06 07:50:55;;;;;;;5.50;4.93;;;20.70;60.90;;;;;;4146946;28;20030;-43
2022/09/06 07:53:17;;;;;;;5.07;4.47;;;20.70;60.90;;;;;;4146173;28;20541;-50
2022/09/06 07:55:40;;;;;;;5.40;4.40;;;20.60;61.00;;;;;;4146395;28;20112;-47
2022/09/06 07:58:02;;;;;;;5.38;4.88;;;20.60;61.20;;;;;;4138146;28;20048;-47
2022/09/06 08:00:26;;;;;;;6.07;3.97;;;20.60;61.40;;;;;;4142372;28;20042;-47
2022/09/06 08:02:48;;;;;;;4.93;3.80;;;20.60;61.50;;;;;;4144236;28;20152;-47
2022/09/06 08:05:11;;;;;;;5.82;3.47;;;20.60;61.70;;;;;;4151706;28;20446;-45
2022/09/06 08:07:33;;;;;;;10.98;3.88;;;20.60;62.20;;;;;;4146008;28;20044;-41
2022/09/06 08:09:56;;;;;;;6.60;2.83;;;20.60;62.30;;;;;;4150647;28;20178;-40
2022/09/06 08:12:19;;;;;;;3.85;2.42;;;20.60;62.00;;;;;;4152877;28;20074;-43
2022/09/06 08:14:41;;;;;;;3.75;2.58;;;20.60;61.20;;;;;;4145199;28;21027;-42
2022/09/06 08:17:04;;;;;;;5.55;2.40;;;20.50;60.80;;;;;;4141355;28;20091;-41
2022/09/06 08:19:27;;;;;;;3.47;2.47;;;20.50;61.00;;;;;;4137707;28;20459;-42
2022/09/06 08:21:53;;;;;;;5.57;2.50;;;20.40;60.80;;;;;;4140038;28;20033;-43
2022/09/06 08:24:15;;;;;;;4.07;2.40;;;20.40;60.60;;;;;;4148400;28;20037;-41
2022/09/06 08:26:41;;;;;;;2.97;2.00;;;20.30;61.00;;;;;;4149872;28;20041;-43
2022/09/06 08:29:06;;;;;;;4.90;2.30;;;20.30;60.90;;;;;;4153513;28;20033;-43
2022/09/06 08:31:30;;;;;;;2.95;2.00;;;20.30;61.20;;;;;;4148635;28;20033;-41
2022/09/06 08:33:57;;;;;;;2.85;1.65;;;20.20;61.20;;;;;;4140963;28;20132;-41
2022/09/06 08:36:20;;;;;;;2.55;1.90;;;20.20;60.90;;;;;;4146299;28;20037;-40
2022/09/06 08:38:44;;;;;;;1.95;1.50;;;20.10;61.20;;;;;;4146989;28;20041;-42
2022/09/06 08:41:28;;;;;;;2.45;1.83;;;20.10;61.30;;;;;;4144607;28;20074;-41
2022/09/06 08:43:57;;;;;;;2.30;1.58;;;20.00;61.60;;;;;;4147152;28;20285;-44
2022/09/06 08:46:25;;;;;;;2.00;1.55;;;20.00;61.50;;;;;;4143486;28;20038;-41
2022/09/06 08:48:48;;;;;;;2.03;1.40;;;20.00;61.30;;;;;;4147090;28;20570;-41
2022/09/06 08:51:44;;;;;;;2.58;1.67;;;19.90;61.50;;;;;;4152090;28;20030;-40
2022/09/06 08:54:36;;;;;;;1.85;1.27;;;19.90;61.70;;;;;;4146634;28;20485;-43
2022/09/06 08:57:17;;;;;;;2.88;1.65;;;19.80;61.60;;;;;;4148053;28;20153;-45
2022/09/06 08:59:41;;;;;;;2.78;1.42;;;19.90;61.70;;;;;;4145090;28;20846;-40
2022/09/06 09:02:17;;;;;;;2.67;1.27;;;19.80;61.90;;;;;;4149326;28;20503;-41
2022/09/06 09:05:03;;;;;;;2.35;1.50;;;19.80;61.80;;;;;;4148843;28;20092;-40
2022/09/06 09:07:42;;;;;;;1.60;1.20;;;19.80;62.10;;;;;;4148846;28;20468;-42
2022/09/06 09:10:29;;;;;;;2.03;1.23;;;19.70;62.00;;;;;;4150658;28;20152;-41
2022/09/06 09:12:51;;;;;;;2.13;1.33;;;19.70;62.30;;;;;;4153444;28;20242;-40
2022/09/06 09:15:18;;;;;;;1.70;1.00;;;19.60;62.10;;;;;;4151481;28;20164;-41
2022/09/06 09:17:41;;;;;;;1.35;1.20;;;19.60;62.00;;;;;;4149195;28;20045;-41
2022/09/06 09:20:07;;;;;;;2.10;1.50;;;19.60;62.30;;;;;;4155816;28;20461;-41
2022/09/06 09:22:30;;;;;;;3.05;1.10;;;19.50;62.20;;;;;;4152806;28;20037;-42
2022/09/06 09:24:53;;;;;;;1.83;1.40;;;19.60;62.00;;;;;;4148248;28;20045;-41
2022/09/06 09:27:23;;;;;;;1.20;1.10;;;19.50;62.10;;;;;;4156657;28;20130;-40
2022/09/06 09:29:54;;;;;;;2.70;1.25;;;19.50;62.00;;;;;;4158618;28;21138;-42
2022/09/06 09:32:29;;;;;;;2.15;1.25;;;19.50;62.20;;;;;;4162135;28;20049;-40
2022/09/06 09:34:52;;;;;;;1.27;0.90;;;19.50;62.40;;;;;;4154721;28;20511;-41
2022/09/06 09:37:18;;;;;;;1.67;1.05;;;19.50;62.20;;;;;;4152829;28;20426;-40
2022/09/06 09:39:40;;;;;;;1.90;1.20;;;19.50;62.40;;;;;;4158476;28;20033;-40
2022/09/06 09:42:03;;;;;;;1.10;1.00;;;19.40;62.20;;;;;;4156128;28;20124;-42
2022/09/06 09:44:28;;;;;;;1.85;1.13;;;19.40;62.50;;;;;;4150049;28;20106;-41
2022/09/06 09:46:51;;;;;;;1.33;1.08;;;19.40;62.30;;;;;;4149250;28;20064;-40
2022/09/06 09:49:35;;;;;;;2.65;1.40;;;19.40;62.30;;;;;;4155776;28;20076;-41
2022/09/06 09:52:13;;;;;;;1.58;1.05;;;19.40;62.60;;;;;;4163719;28;20478;-41
2022/09/06 09:54:39;;;;;;;2.05;1.30;;;19.30;62.90;;;;;;4151484;28;20041;-41
2022/09/06 09:57:06;;;;;;;2.00;1.00;;;19.30;62.60;;;;;;4158206;28;20115;-40
2022/09/06 09:59:55;;;;;;;1.88;1.20;;;19.30;62.60;;;;;;4170956;28;20039;-40
2022/09/06 10:02:26;;;;;;;2.13;1.25;;;19.30;62.70;;;;;;4173171;28;20033;-40
2022/09/06 10:05:00;;;;;;;1.27;0.90;;;19.30;62.70;;;;;;4158646;28;20496;-40
2022/09/06 10:07:23;;;;;;;2.78;1.17;;;19.30;62.70;;;;;;4153990;28;20118;-41
2022/09/06 10:10:10;;;;;;;1.73;1.08;;;19.20;62.70;;;;;;4155530;28;20562;-40
2022/09/06 10:12:37;;;;;;;5.13;1.67;;;19.20;63.10;;;;;;4148107;28;20129;-42
2022/09/06 10:15:01;;;;;;;1.80;1.30;;;19.20;63.30;;;;;;4154335;28;20046;-48
2022/09/06 10:17:33;;;;;;;3.65;1.10;;;19.20;63.20;;;;;;4151442;28;20128;-50
2022/09/06 10:19:57;;;;;;;3.53;1.42;;;19.20;63.30;;;;;;4152010;28;20600;-48
2022/09/06 10:22:26;;;;;;;2.17;1.38;;;19.20;63.40;;;;;;4154081;28;20065;-47
2022/09/06 10:25:07;;;;;;;2.20;1.23;;;19.20;63.20;;;;;;4152110;28;20073;-44
2022/09/06 10:27:29;;;;;;;7.63;1.83;;;19.20;63.20;;;;;;4155532;28;20039;-46
2022/09/06 10:30:09;;;;;;;1.60;1.20;;;19.20;63.80;;;;;;4154633;28;20590;-42
2022/09/06 10:32:41;;;;;;;9.27;1.85;;;19.20;63.00;;;;;;4150915;28;20713;-47
2022/09/06 10:35:13;;;;;;;6.18;1.30;;;19.20;63.00;;;;;;4151089;28;20041;-44
2022/09/06 10:37:48;;;;;;;1.75;1.10;;;19.20;63.20;;;;;;4154856;28;20549;-47
2022/09/06 10:40:16;;;;;;;2.70;1.02;;;19.20;63.50;;;;;;4149962;28;20046;-45
2022/09/06 10:42:42;;;;;;;1.77;1.08;;;19.30;64.00;;;;;;4154733;28;20091;-47
2022/09/06 10:45:35;;;;;;;1.65;1.02;;;19.20;64.20;;;;;;4153760;28;20092;-45
2022/09/06 10:48:16;;;;;;;1.88;0.98;;;19.30;64.30;;;;;;4156462;28;20112;-47
2022/09/06 10:50:53;;;;;;;1.25;0.82;;;19.30;64.50;;;;;;4152171;28;20049;-45
2022/09/06 10:53:21;;;;;;;1.75;1.00;;;19.30;64.50;;;;;;4151624;28;20037;-45
2022/09/06 10:55:48;;;;;;;1.48;1.00;;;19.30;64.70;;;;;;4151194;28;20045;-43
2022/09/06 10:58:11;;;;;;;1.98;1.00;;;19.30;64.70;;;;;;4148732;28;20409;-51
2022/09/06 11:00:42;;;;;;;1.33;1.02;;;19.30;64.80;;;;;;4156113;28;20041;-46
2022/09/06 11:03:22;;;;;;;2.42;1.00;;;19.40;64.90;;;;;;4155453;28;20053;-49
2022/09/06 11:05:51;;;;;;;2.15;0.85;;;19.40;64.90;;;;;;4134533;28;20109;-44
2022/09/06 11:08:46;;;;;;;1.58;0.95;;;19.40;64.90;;;;;;4146968;28;20546;-45
2022/09/06 11:11:39;;;;;;;2.90;0.90;;;19.40;65.00;;;;;;4152100;28;20088;-49
2022/09/06 11:14:08;;;;;;;1.45;0.90;;;19.40;64.80;;;;;;4154359;28;20317;-45
2022/09/06 11:16:38;;;;;;;1.95;0.98;;;19.40;64.80;;;;;;4148136;28;20040;-51
2022/09/06 11:19:04;;;;;;;1.73;1.27;;;19.50;64.90;;;;;;4152657;28;20042;-46
2022/09/06 11:21:43;;;;;;;1.50;0.90;;;19.50;64.80;;;;;;4155278;28;20037;-45
2022/09/06 11:24:28;;;;;;;1.10;0.90;;;19.50;64.80;;;;;;4153469;28;20060;-49
2022/09/06 11:26:50;;;;;;;;;;;19.50;64.80;;;;;;4153373;28;20037;-43
2022/09/06 11:29:19;;;;;;;2.22;0.93;;;19.50;64.90;;;;;;4154251;28;19992;-47
2022/09/06 11:31:52;;;;;;;2.10;0.73;;;19.50;64.80;;;;;;4159368;28;20574;-47
2022/09/06 11:34:26;;;;;;;3.60;1.08;;;19.50;64.80;;;;;;4162981;28;20045;-50
2022/09/06 11:36:50;;;;;;;;;;;19.50;64.80;;;;;;4157169;28;20047;-49
2022/09/06 11:39:15;;;;;;;1.25;1.00;;;19.50;64.70;;;;;;4158348;28;19921;-49
2022/09/06 11:41:42;;;;;;;2.70;1.20;;;19.50;64.70;;;;;;4158352;28;20511;-48
2022/09/06 11:44:06;;;;;;;3.17;1.00;;;19.50;64.70;;;;;;4154733;28;20546;-49
2022/09/06 11:46:34;;;;;;;2.65;1.02;;;19.60;64.70;;;;;;4154352;28;20037;-47
2022/09/06 11:49:01;;;;;;;1.17;0.90;;;19.50;64.70;;;;;;4158631;28;20045;-46
2022/09/06 11:51:39;;;;;;;2.88;1.15;;;19.50;64.60;;;;;;4153946;28;20100;-47
2022/09/06 11:54:11;;;;;;;3.53;1.25;;;19.60;64.70;;;;;;4167866;28;20041;-48
2022/09/06 11:56:53;;;;;;;1.45;1.10;;;19.50;64.60;;;;;;4158194;28;20485;-47
2022/09/06 11:59:26;;;;;;;1.70;0.82;;;19.50;64.60;;;;;;4161378;28;20139;-48
2022/09/06 12:02:27;;;;;;;1.20;1.00;;;19.60;64.60;;;;;;4155111;28;20068;-45
2022/09/06 12:05:03;;;;;;;7.78;1.40;;;19.60;64.70;;;;;;4159469;28;20505;-48
2022/09/06 12:07:49;;;;;;;3.28;1.20;;;19.60;64.60;;;;;;4157731;28;20049;-48
2022/09/06 12:10:29;;;;;;;3.17;1.50;;;19.60;64.60;;;;;;4127175;28;20052;-45
2022/09/06 12:12:52;;;;;;;1.90;1.20;;;19.60;64.50;;;;;;4154933;28;20064;-47
2022/09/06 12:15:27;;;;;;;3.05;1.20;;;19.60;64.40;;;;;;4152860;28;20046;-42
2022/09/06 12:17:50;;;;;;;4.70;1.30;;;19.60;64.30;;;;;;4149444;28;20330;-42
2022/09/06 12:20:47;;;;;;;3.78;1.55;;;19.60;64.30;;;;;;4158329;28;20033;-41
2022/09/06 12:23:35;;;;;;;4.43;2.47;;;19.60;63.50;;;;;;4152070;28;20427;-42
2022/09/06 12:25:57;;;;;;;3.95;2.50;;;19.60;62.00;;;;;;4162058;28;20029;-46
2022/09/06 12:28:41;;;;;;;5.25;2.60;;;19.50;61.80;;;;;;4154775;28;20041;-41
2022/09/06 12:31:25;;;;;;;13.38;3.03;;;19.50;61.60;;;;;;4150702;28;20037;-44
2022/09/06 12:33:48;;;;;;;6.18;2.17;;;19.40;62.20;;;;;;4147610;28;20417;-43
2022/09/06 12:36:13;;;;;;;13.38;2.63;;;19.40;62.60;;;;;;4151990;28;20132;-45
2022/09/06 12:38:36;;;;;;;4.70;2.25;;;19.40;62.80;;;;;;4149088;28;20848;-41
2022/09/06 12:41:00;;;;;;;3.53;2.28;;;19.40;62.70;;;;;;4150111;28;20100;-43
2022/09/06 12:43:22;;;;;;;3.20;2.13;;;19.40;62.80;;;;;;4152962;28;20049;-42
2022/09/06 12:45:49;;;;;;;3.53;2.22;;;19.40;62.90;;;;;;4152418;28;20468;-42
2022/09/06 12:48:24;;;;;;;5.57;2.75;;;19.30;63.00;;;;;;4155995;28;20629;-43